createdAt,value
2018-09-05T00:00:40.275Z,11.07
2018-09-05T00:03:08.659Z,11.27
2018-09-05T00:05:37.075Z,15.10
2018-09-05T00:08:05.495Z,15.80
2018-09-05T00:10:33.911Z,15.80
2018-09-05T00:13:02.324Z,15.23
2018-09-05T00:15:30.728Z,15.13
2018-09-05T00:17:59.179Z,15.30
2018-09-05T00:20:27.612Z,14.37
2018-09-05T00:22:56.050Z,14.80
2018-09-05T00:25:24.467Z,10.97
2018-09-05T00:27:52.866Z,12.30
2018-09-05T00:30:21.325Z,11.40
2018-09-05T00:32:49.720Z,10.50
2018-09-05T00:35:18.137Z,10.43
2018-09-05T00:37:46.531Z,10.07
2018-09-05T00:40:14.916Z,10.70
2018-09-05T00:42:43.294Z,9.27
2018-09-05T00:45:11.715Z,10.10
2018-09-05T00:47:40.092Z,9.37
2018-09-05T00:50:08.511Z,8.97
2018-09-05T00:52:36.908Z,9.87
2018-09-05T00:55:05.320Z,10.07
2018-09-05T00:57:33.747Z,11.40
2018-09-05T01:00:02.122Z,10.87
2018-09-05T01:02:30.526Z,11.33
2018-09-05T01:04:58.963Z,11.13
2018-09-05T01:07:28.567Z,12.07
2018-09-05T01:09:56.948Z,12.77
2018-09-05T01:12:25.823Z,15.70
2018-09-05T01:14:55.016Z,13.57
2018-09-05T01:17:23.464Z,13.03
2018-09-05T01:19:51.848Z,14.00
2018-09-05T01:22:20.252Z,14.80
2018-09-05T01:24:48.675Z,15.40
2018-09-05T01:27:17.087Z,14.83
2018-09-05T01:29:45.472Z,12.63
2018-09-05T01:32:13.864Z,10.20
2018-09-05T01:34:42.567Z,10.57
2018-09-05T01:37:11.583Z,10.10
2018-09-05T01:39:40.239Z,9.00
2018-09-05T01:42:09.573Z,10.07
2018-09-05T01:44:38.008Z,10.00
2018-09-05T01:47:06.734Z,9.13
2018-09-05T01:49:35.153Z,8.77
2018-09-05T01:52:03.603Z,10.20
2018-09-05T01:54:31.983Z,11.20
2018-09-05T01:57:00.396Z,11.43
2018-09-05T01:59:28.809Z,13.97
2018-09-05T02:01:57.247Z,12.30
2018-09-05T02:04:25.650Z,12.73
2018-09-05T02:06:54.058Z,12.37
2018-09-05T02:09:22.483Z,12.30
2018-09-05T02:11:50.921Z,14.03
2018-09-05T02:14:19.338Z,14.43
2018-09-05T02:16:47.746Z,16.07
2018-09-05T02:19:16.156Z,12.60
2018-09-05T02:21:44.543Z,13.20
2018-09-05T02:24:12.967Z,10.80
2018-09-05T02:26:41.406Z,9.43
2018-09-05T02:29:09.806Z,10.03
2018-09-05T02:31:38.188Z,10.00
2018-09-05T02:34:06.652Z,8.53
2018-09-05T02:36:35.044Z,9.83
2018-09-05T02:39:03.636Z,9.50
2018-09-05T02:41:32.009Z,10.33
2018-09-05T02:44:05.709Z,9.37
2018-09-05T02:46:34.088Z,10.03
2018-09-05T02:49:02.514Z,10.53
2018-09-05T02:51:30.896Z,11.07
2018-09-05T02:53:59.309Z,13.03
2018-09-05T02:56:27.778Z,14.13
2018-09-05T02:58:56.158Z,14.00
2018-09-05T03:01:24.584Z,14.00
2018-09-05T03:03:52.970Z,13.83
2018-09-05T03:06:21.480Z,14.43
2018-09-05T03:08:49.858Z,14.57
2018-09-05T03:11:18.267Z,17.87
2018-09-05T03:13:46.671Z,18.50
2018-09-05T03:16:15.077Z,17.27
2018-09-05T03:18:43.495Z,18.50
2018-09-05T03:21:11.922Z,17.30
2018-09-05T03:23:40.354Z,18.20
2018-09-05T03:26:08.800Z,15.13
2018-09-05T03:28:37.229Z,13.67
2018-09-05T03:31:06.241Z,12.63
2018-09-05T03:33:34.611Z,12.07
2018-09-05T03:36:03.036Z,11.10
2018-09-05T03:38:31.439Z,12.13
2018-09-05T03:40:59.859Z,9.70
2018-09-05T03:43:28.257Z,10.27
2018-09-05T03:45:56.677Z,10.73
2018-09-05T03:48:25.119Z,11.17
2018-09-05T03:50:57.735Z,9.27
2018-09-05T03:53:27.247Z,10.17
2018-09-05T03:55:56.348Z,12.00
2018-09-05T03:58:24.748Z,11.33
2018-09-05T04:00:53.222Z,12.67
2018-09-05T04:03:21.642Z,11.10
2018-09-05T04:05:50.128Z,12.10
2018-09-05T04:08:18.536Z,10.43
2018-09-05T04:10:46.927Z,10.27
2018-09-05T04:13:15.339Z,10.77
2018-09-05T04:15:43.745Z,8.90
2018-09-05T04:18:12.675Z,8.90
2018-09-05T04:20:41.077Z,10.47
2018-09-05T04:23:09.504Z,11.37
2018-09-05T04:25:37.922Z,10.80
2018-09-05T04:28:06.670Z,11.33
2018-09-05T04:30:35.088Z,12.63
2018-09-05T04:33:03.524Z,12.03
2018-09-05T04:35:31.939Z,11.83
2018-09-05T04:38:00.400Z,12.13
2018-09-05T04:40:28.887Z,15.57
2018-09-05T04:42:57.302Z,14.57
2018-09-05T04:45:25.743Z,13.10
2018-09-05T04:47:54.168Z,10.97
2018-09-05T04:50:22.624Z,11.43
2018-09-05T04:52:51.051Z,9.03
2018-09-05T04:55:19.460Z,9.77
2018-09-05T04:57:47.897Z,9.00
2018-09-05T05:00:16.307Z,9.17
2018-09-05T05:02:44.762Z,8.50
2018-09-05T05:05:13.176Z,9.07
2018-09-05T05:07:41.594Z,8.20
2018-09-05T05:10:10.007Z,9.73
2018-09-05T05:12:38.470Z,9.53
2018-09-05T05:15:06.978Z,9.70
2018-09-05T05:17:35.411Z,9.70
2018-09-05T05:20:03.893Z,11.63
2018-09-05T05:22:32.314Z,9.90
2018-09-05T05:25:00.746Z,11.73
2018-09-05T05:27:29.170Z,10.07
2018-09-05T05:29:57.583Z,10.10
2018-09-05T05:32:26.071Z,10.30
2018-09-05T05:34:54.616Z,9.57
2018-09-05T05:37:23.024Z,10.03
2018-09-05T05:39:51.453Z,9.80
2018-09-05T05:42:19.929Z,10.03
2018-09-05T05:44:48.376Z,10.37
2018-09-05T05:47:16.814Z,10.93
2018-09-05T05:49:45.250Z,12.23
2018-09-05T05:52:13.690Z,11.00
2018-09-05T05:54:42.112Z,10.00
2018-09-05T05:57:10.560Z,10.07
2018-09-05T05:59:39.036Z,11.00
2018-09-05T06:02:07.540Z,11.20
2018-09-05T06:04:35.972Z,11.33
2018-09-05T06:07:04.464Z,11.80
2018-09-05T06:09:32.907Z,10.57
2018-09-05T06:12:01.415Z,11.40
2018-09-05T06:14:29.883Z,11.63
2018-09-05T06:16:58.355Z,9.80
2018-09-05T06:19:26.811Z,10.30
2018-09-05T06:21:55.280Z,10.60
2018-09-05T06:24:23.759Z,12.03
2018-09-05T06:26:52.191Z,10.37
2018-09-05T06:29:20.697Z,11.33
2018-09-05T06:31:49.704Z,11.23
2018-09-05T06:34:18.579Z,11.50
2018-09-05T06:36:46.960Z,10.80
2018-09-05T06:39:15.405Z,10.23
2018-09-05T06:41:43.833Z,11.10
2018-09-05T06:44:12.241Z,11.00
2018-09-05T06:46:40.671Z,9.80
2018-09-05T06:49:09.082Z,10.60
2018-09-05T06:51:37.577Z,10.97
2018-09-05T06:54:06.048Z,11.37
2018-09-05T06:56:34.508Z,11.57
2018-09-05T06:59:02.931Z,11.33
2018-09-05T07:01:31.384Z,11.47
2018-09-05T07:03:59.933Z,11.67
2018-09-05T07:06:28.296Z,11.83
2018-09-05T07:08:56.704Z,10.53
2018-09-05T07:11:25.188Z,11.00
2018-09-05T07:13:53.611Z,14.53
2018-09-05T07:16:22.085Z,10.80
2018-09-05T07:18:50.536Z,11.17
2018-09-05T07:21:19.062Z,11.13
2018-09-05T07:23:47.452Z,10.57
2018-09-05T07:26:15.928Z,10.60
2018-09-05T07:28:44.389Z,10.77
2018-09-05T07:31:12.846Z,10.83
2018-09-05T07:33:41.260Z,10.10
2018-09-05T07:36:09.693Z,9.47
2018-09-05T07:38:38.144Z,11.10
2018-09-05T07:41:06.787Z,11.03
2018-09-05T07:43:35.527Z,10.23
2018-09-05T07:46:03.985Z,9.87
2018-09-05T07:48:32.467Z,11.20
2018-09-05T07:51:00.953Z,10.90
2018-09-05T07:53:29.348Z,11.10
2018-09-05T07:55:57.859Z,11.50
2018-09-05T07:58:26.522Z,10.87
2018-09-05T08:00:54.935Z,9.90
2018-09-05T08:03:23.595Z,14.60
2018-09-05T08:05:52.483Z,9.00
2018-09-05T08:08:20.907Z,9.43
2018-09-05T08:10:49.389Z,7.23
2018-09-05T08:13:17.943Z,8.70
2018-09-05T08:15:46.383Z,9.07
2018-09-05T08:18:14.859Z,8.93
2018-09-05T08:20:43.820Z,8.73
2018-09-05T08:23:12.304Z,8.20
2018-09-05T08:25:40.737Z,7.90
2018-09-05T08:28:09.224Z,9.23
2018-09-05T08:30:37.674Z,7.63
2018-09-05T08:33:06.036Z,9.10
2018-09-05T08:35:34.687Z,7.33
2018-09-05T08:38:02.972Z,7.53
2018-09-05T08:40:31.338Z,7.57
2018-09-05T08:42:59.754Z,7.67
2018-09-05T08:45:28.698Z,6.87
2018-09-05T08:47:56.693Z,9.93
2018-09-05T08:50:25.108Z,8.73
2018-09-05T08:52:53.570Z,10.80
2018-09-05T08:55:22.058Z,12.10
2018-09-05T08:57:50.517Z,7.10
2018-09-05T09:00:18.983Z,9.60
2018-09-05T09:02:47.445Z,8.90
2018-09-05T09:05:15.893Z,8.23
2018-09-05T09:07:44.406Z,8.00
2018-09-05T09:10:12.908Z,8.83
2018-09-05T09:12:41.408Z,8.93
2018-09-05T09:15:09.889Z,8.63
2018-09-05T09:17:38.322Z,9.13
2018-09-05T09:20:06.976Z,8.57
2018-09-05T09:22:35.440Z,10.20
2018-09-05T09:25:03.922Z,10.43
2018-09-05T09:27:32.487Z,9.47
2018-09-05T09:30:01.417Z,10.90
2018-09-05T09:32:30.013Z,13.50
2018-09-05T09:34:58.491Z,9.10
2018-09-05T09:37:26.924Z,10.40
2018-09-05T09:39:55.388Z,10.30
2018-09-05T09:42:23.835Z,10.60
2018-09-05T09:44:52.283Z,11.13
2018-09-05T09:47:20.781Z,9.43
2018-09-05T09:49:49.234Z,9.37
2018-09-05T09:52:19.439Z,10.80
2018-09-05T09:54:48.972Z,9.33
2018-09-05T09:57:17.420Z,10.63
2018-09-05T09:59:45.893Z,12.17
2018-09-05T10:02:19.683Z,9.40
2018-09-05T10:04:53.544Z,10.30
2018-09-05T10:07:27.126Z,9.73
2018-09-05T10:09:59.943Z,10.63
2018-09-05T10:12:33.662Z,9.73
2018-09-05T10:15:07.105Z,11.60
2018-09-05T10:17:36.973Z,11.47
2018-09-05T10:20:05.905Z,11.33
2018-09-05T10:22:34.402Z,11.30
2018-09-05T10:25:02.861Z,10.30
2018-09-05T10:27:31.350Z,14.63
2018-09-05T10:29:59.818Z,12.10
2018-09-05T10:32:28.271Z,9.53
2018-09-05T10:34:57.172Z,10.87
2018-09-05T10:37:26.019Z,11.33
2018-09-05T10:39:54.477Z,11.10
2018-09-05T10:42:22.936Z,11.10
2018-09-05T10:44:51.364Z,11.00
2018-09-05T10:47:19.823Z,13.00
2018-09-05T10:49:48.251Z,11.83
2018-09-05T10:52:16.713Z,11.47
2018-09-05T10:54:45.332Z,11.03
2018-09-05T10:57:13.812Z,13.43
2018-09-05T10:59:42.249Z,11.83
2018-09-05T11:02:10.727Z,14.60
2018-09-05T11:04:39.181Z,11.23
2018-09-05T11:07:07.634Z,12.73
2018-09-05T11:09:36.064Z,11.93
2018-09-05T11:12:04.571Z,13.10
2018-09-05T11:14:33.021Z,11.97
2018-09-05T11:17:01.725Z,11.53
2018-09-05T11:19:30.189Z,12.80
2018-09-05T11:21:58.683Z,12.10
2018-09-05T11:24:27.140Z,12.97
2018-09-05T11:26:55.545Z,12.13
2018-09-05T11:29:23.989Z,12.43
2018-09-05T11:31:52.467Z,11.80
2018-09-05T11:34:20.943Z,10.80
2018-09-05T11:36:49.387Z,12.80
2018-09-05T11:39:17.866Z,11.40
2018-09-05T11:41:46.315Z,13.70
2018-09-05T11:44:14.851Z,12.13
2018-09-05T11:46:43.331Z,11.20
2018-09-05T11:49:11.807Z,11.50
2018-09-05T11:51:40.273Z,11.43
2018-09-05T11:54:09.552Z,12.17
2018-09-05T11:56:38.052Z,12.10
2018-09-05T11:59:06.549Z,10.70
2018-09-05T12:01:35.020Z,11.53
2018-09-05T12:04:03.577Z,11.10
2018-09-05T12:06:32.068Z,9.60
2018-09-05T12:09:00.527Z,10.47
2018-09-05T12:11:28.967Z,9.60
2018-09-05T12:13:57.428Z,9.30
2018-09-05T12:16:25.879Z,11.07
2018-09-05T12:18:54.418Z,10.50
2018-09-05T12:21:22.833Z,9.73
2018-09-05T12:23:51.300Z,10.80
2018-09-05T12:26:19.744Z,9.50
2018-09-05T12:28:48.207Z,9.27
2018-09-05T12:31:16.648Z,9.00
2018-09-05T12:33:45.161Z,9.50
2018-09-05T12:36:13.587Z,8.33
2018-09-05T12:38:41.996Z,9.60
2018-09-05T12:41:10.443Z,8.80
2018-09-05T12:43:38.890Z,9.53
2018-09-05T12:46:07.384Z,9.50
2018-09-05T12:48:35.876Z,9.73
2018-09-05T12:51:04.400Z,9.20
2018-09-05T12:53:32.826Z,8.30
2018-09-05T12:56:01.332Z,9.70
2018-09-05T12:58:29.779Z,8.57
2018-09-05T13:00:58.296Z,9.80
2018-09-05T13:03:26.779Z,8.60
2018-09-05T13:05:55.319Z,9.87
2018-09-05T13:08:23.789Z,8.97
2018-09-05T13:10:52.264Z,8.63
2018-09-05T13:13:20.712Z,10.13
2018-09-05T13:15:49.224Z,10.70
2018-09-05T13:18:17.656Z,9.60
2018-09-05T13:20:46.128Z,9.70
2018-09-05T13:23:14.585Z,10.00
2018-09-05T13:25:43.061Z,9.47
2018-09-05T13:28:11.496Z,9.30
2018-09-05T13:30:39.944Z,9.30
2018-09-05T13:33:08.488Z,8.77
2018-09-05T13:35:36.973Z,8.47
2018-09-05T13:38:05.408Z,9.07
2018-09-05T13:40:33.816Z,10.40
2018-09-05T13:43:02.292Z,9.53
2018-09-05T13:45:30.773Z,9.87
2018-09-05T13:47:59.224Z,10.07
2018-09-05T13:50:27.771Z,9.80
2018-09-05T13:52:56.237Z,10.57
2018-09-05T13:55:24.661Z,11.13
2018-09-05T13:57:53.144Z,10.07
2018-09-05T14:00:21.575Z,10.07
2018-09-05T14:02:50.388Z,8.63
2018-09-05T14:05:18.816Z,9.43
2018-09-05T14:07:47.254Z,9.33
2018-09-05T14:10:16.653Z,9.80
2018-09-05T14:12:45.773Z,9.23
2018-09-05T14:15:14.220Z,10.13
2018-09-05T14:17:42.752Z,9.73
2018-09-05T14:20:11.249Z,9.57
2018-09-05T14:22:39.754Z,9.77
2018-09-05T14:25:08.244Z,10.97
2018-09-05T14:27:36.765Z,9.53
2018-09-05T14:30:05.188Z,8.57
2018-09-05T14:32:33.624Z,8.30
2018-09-05T14:35:02.062Z,9.53
2018-09-05T14:37:30.508Z,9.83
2018-09-05T14:39:59.009Z,11.00
2018-09-05T14:42:29.101Z,8.97
2018-09-05T14:44:57.548Z,9.07
2018-09-05T14:47:25.985Z,8.77
2018-09-05T14:49:54.447Z,9.33
2018-09-05T14:52:22.984Z,11.43
2018-09-05T14:54:51.456Z,10.10
2018-09-05T14:57:20.299Z,9.00
2018-09-05T14:59:48.928Z,9.83
2018-09-05T15:02:18.059Z,10.37
2018-09-05T15:04:46.998Z,9.50
2018-09-05T15:07:15.426Z,9.63
2018-09-05T15:09:43.873Z,9.93
2018-09-05T15:12:12.307Z,8.20
2018-09-05T15:14:40.765Z,9.00
2018-09-05T15:17:09.177Z,8.53
2018-09-05T15:19:37.620Z,9.27
2018-09-05T15:22:06.068Z,11.07
2018-09-05T15:24:34.515Z,9.00
2018-09-05T15:27:02.971Z,8.50
2018-09-05T15:29:33.406Z,9.67
2018-09-05T15:32:01.794Z,8.47
2018-09-05T15:34:30.227Z,9.57
2018-09-05T15:36:58.702Z,7.97
2018-09-05T15:39:27.182Z,8.43
2018-09-05T15:41:55.589Z,7.97
2018-09-05T15:44:24.026Z,9.67
2018-09-05T15:46:52.493Z,14.10
2018-09-05T15:49:20.916Z,9.10
2018-09-05T15:51:53.870Z,9.43
2018-09-05T15:54:22.757Z,9.33
2018-09-05T15:56:51.688Z,9.03
2018-09-05T15:59:20.153Z,9.27
2018-09-05T16:01:48.594Z,8.63
2018-09-05T16:04:17.039Z,9.40
2018-09-05T16:06:46.348Z,9.27
2018-09-05T16:09:14.767Z,8.33
2018-09-05T16:11:43.240Z,7.70
2018-09-05T16:14:11.679Z,9.80
2018-09-05T16:16:40.125Z,8.60
2018-09-05T16:19:08.559Z,8.23
2018-09-05T16:21:37.016Z,10.50
2018-09-05T16:24:05.465Z,7.70
2018-09-05T16:26:33.905Z,9.40
2018-09-05T16:29:02.324Z,10.90
2018-09-05T16:31:30.776Z,9.70
2018-09-05T16:33:59.221Z,9.57
2018-09-05T16:36:27.700Z,10.93
2018-09-05T16:38:56.139Z,10.60
2018-09-05T16:41:24.564Z,9.77
2018-09-05T16:43:53.018Z,11.93
2018-09-05T16:46:21.453Z,11.10
2018-09-05T16:48:49.904Z,10.67
2018-09-05T16:51:18.343Z,9.80
2018-09-05T16:53:46.832Z,10.07
2018-09-05T16:56:15.287Z,10.70
2018-09-05T16:58:43.752Z,10.73
2018-09-05T17:01:12.188Z,10.27
2018-09-05T17:03:40.652Z,9.07
2018-09-05T17:06:09.085Z,10.23
2018-09-05T17:08:37.519Z,11.80
2018-09-05T17:11:06.108Z,12.10
2018-09-05T17:13:34.601Z,10.13
2018-09-05T17:16:03.396Z,11.30
2018-09-05T17:18:31.853Z,11.63
2018-09-05T17:21:00.331Z,11.50
2018-09-05T17:23:28.785Z,11.10
2018-09-05T17:25:57.237Z,11.27
2018-09-05T17:28:25.738Z,13.20
2018-09-05T17:30:54.223Z,13.00
2018-09-05T17:33:22.659Z,10.60
2018-09-05T17:35:51.111Z,11.13
2018-09-05T17:38:19.860Z,11.60
2018-09-05T17:40:48.310Z,10.70
2018-09-05T17:43:16.784Z,10.70
2018-09-05T17:45:45.857Z,11.20
2018-09-05T17:48:14.275Z,12.87
2018-09-05T17:50:42.725Z,12.40
2018-09-05T17:53:11.140Z,10.83
2018-09-05T17:55:39.600Z,12.43
2018-09-05T17:58:08.327Z,12.10
2018-09-05T18:00:36.827Z,11.27
2018-09-05T18:03:05.337Z,12.93
2018-09-05T18:05:33.780Z,13.13
2018-09-05T18:08:02.211Z,13.00
2018-09-05T18:10:30.648Z,12.70
2018-09-05T18:12:59.064Z,12.03
2018-09-05T18:15:27.530Z,12.50
2018-09-05T18:17:55.935Z,12.30
2018-09-05T18:20:24.371Z,12.40
2018-09-05T18:22:52.833Z,11.83
2018-09-05T18:25:21.308Z,12.87
2018-09-05T18:27:49.728Z,11.50
2018-09-05T18:30:18.180Z,10.63
2018-09-05T18:32:46.598Z,11.90
2018-09-05T18:35:15.041Z,13.40
2018-09-05T18:37:43.480Z,12.10
2018-09-05T18:40:11.933Z,12.30
2018-09-05T18:42:40.407Z,10.90
2018-09-05T18:45:09.112Z,12.40
2018-09-05T18:47:37.528Z,11.97
2018-09-05T18:50:06.040Z,12.73
2018-09-05T18:52:34.461Z,11.63
2018-09-05T18:55:02.918Z,13.83
2018-09-05T18:57:31.400Z,12.60
2018-09-05T18:59:59.824Z,12.07
2018-09-05T19:02:28.321Z,13.13
2018-09-05T19:04:56.753Z,12.23
2018-09-05T19:07:25.198Z,13.73
2018-09-05T19:09:53.616Z,11.43
2018-09-05T19:12:22.052Z,12.30
2018-09-05T19:14:50.520Z,11.70
2018-09-05T19:17:18.968Z,12.43
2018-09-05T19:19:47.396Z,12.57
2018-09-05T19:22:15.841Z,11.30
2018-09-05T19:24:44.263Z,12.53
2018-09-05T19:27:12.708Z,12.53
2018-09-05T19:29:41.108Z,12.20
2018-09-05T19:32:09.565Z,12.40
2018-09-05T19:34:38.021Z,12.13
2018-09-05T19:37:06.436Z,10.80
2018-09-05T19:39:34.897Z,12.63
2018-09-05T19:42:03.301Z,12.03
2018-09-05T19:44:31.741Z,12.27
2018-09-05T19:47:00.164Z,12.50
2018-09-05T19:49:28.718Z,12.50
2018-09-05T19:51:57.133Z,11.33
2018-09-05T19:54:25.576Z,12.13
2018-09-05T19:56:54.027Z,12.17
2018-09-05T19:59:22.515Z,10.97
2018-09-05T20:01:50.953Z,13.30
2018-09-05T20:04:19.454Z,13.93
2018-09-05T20:06:47.896Z,12.43
2018-09-05T20:09:16.331Z,13.33
2018-09-05T20:11:44.788Z,13.70
2018-09-05T20:14:13.252Z,11.90
2018-09-05T20:16:41.675Z,13.57
2018-09-05T20:19:10.109Z,11.27
2018-09-05T20:21:38.529Z,11.60
2018-09-05T20:24:06.972Z,14.63
2018-09-05T20:26:35.404Z,12.20
2018-09-05T20:29:03.868Z,13.30
2018-09-05T20:31:32.344Z,13.83
2018-09-05T20:34:00.814Z,11.37
2018-09-05T20:36:29.278Z,11.17
2018-09-05T20:38:57.740Z,12.43
2018-09-05T20:41:26.202Z,12.83
2018-09-05T20:43:54.639Z,13.70
2018-09-05T20:46:23.079Z,14.53
2018-09-05T20:48:51.509Z,12.30
2018-09-05T20:51:19.981Z,13.90
2018-09-05T20:53:48.423Z,15.50
2018-09-05T20:56:16.886Z,12.40
2018-09-05T20:58:45.361Z,13.13
2018-09-05T21:01:13.787Z,12.30
2018-09-05T21:03:42.197Z,13.50
2018-09-05T21:06:10.694Z,14.23
2018-09-05T21:08:39.114Z,12.87
2018-09-05T21:11:07.560Z,13.33
2018-09-05T21:13:36.156Z,12.13
2018-09-05T21:16:04.612Z,12.90
2018-09-05T21:18:33.051Z,12.57
2018-09-05T21:21:01.518Z,12.83
2018-09-05T21:23:31.504Z,12.07
2018-09-05T21:26:00.223Z,13.37
2018-09-05T21:28:28.656Z,13.93
2018-09-05T21:30:57.126Z,13.93
2018-09-05T21:33:26.014Z,12.90
2018-09-05T21:35:54.691Z,14.23
2018-09-05T21:38:23.172Z,14.20
2018-09-05T21:40:51.636Z,13.40
2018-09-05T21:43:20.065Z,13.67
2018-09-05T21:45:48.535Z,12.53
2018-09-05T21:48:17.049Z,17.73
2018-09-05T21:50:45.412Z,13.93
2018-09-05T21:53:13.858Z,13.40
2018-09-05T21:55:42.285Z,14.47
2018-09-05T21:58:10.746Z,13.87
2018-09-05T22:00:39.245Z,14.13
2018-09-05T22:03:07.673Z,17.53
2018-09-05T22:05:36.156Z,15.50
2018-09-05T22:08:04.622Z,13.93
2018-09-05T22:10:33.080Z,13.60
2018-09-05T22:13:01.531Z,15.70
2018-09-05T22:15:34.384Z,13.27
2018-09-05T22:18:02.824Z,15.87
2018-09-05T22:20:31.276Z,17.80
2018-09-05T22:22:59.695Z,15.00
2018-09-05T22:25:28.116Z,14.57
2018-09-05T22:27:56.564Z,12.40
2018-09-05T22:30:25.018Z,15.77
2018-09-05T22:32:53.447Z,14.83
2018-09-05T22:35:21.905Z,14.77
2018-09-05T22:37:50.336Z,13.33
2018-09-05T22:40:18.782Z,12.70
2018-09-05T22:42:58.637Z,13.57
2018-09-05T22:45:38.349Z,12.10
2018-09-05T22:50:57.980Z,13.77
2018-09-05T22:53:51.154Z,13.70
2018-09-05T22:56:51.492Z,13.70
2018-09-05T23:00:00.563Z,14.50
2018-09-05T23:02:48.499Z,14.10
2018-09-05T23:05:26.976Z,14.73
2018-09-05T23:08:14.646Z,14.20
2018-09-05T23:10:54.354Z,15.00
2018-09-05T23:13:33.833Z,15.00
2018-09-05T23:16:16.924Z,13.20
2018-09-05T23:19:00.580Z,17.00
2018-09-05T23:21:29.056Z,16.20
2018-09-05T23:24:03.340Z,14.33
2018-09-05T23:26:31.861Z,13.03
2018-09-05T23:29:00.313Z,14.07
2018-09-05T23:31:28.773Z,14.37
2018-09-05T23:33:57.189Z,14.77
2018-09-05T23:36:25.895Z,14.20
2018-09-05T23:38:54.490Z,13.50
2018-09-05T23:41:22.978Z,14.20
2018-09-05T23:43:51.424Z,15.60
2018-09-05T23:46:19.959Z,15.27
2018-09-05T23:48:48.385Z,17.57
2018-09-05T23:51:16.869Z,15.07
2018-09-05T23:53:45.304Z,13.73
2018-09-05T23:56:13.769Z,15.13
2018-09-05T23:58:42.206Z,14.53
